Zoie — WDC8046 — position and weather

sailwx.info

Track history (hours):
 
Tides and Currents Weather Stations Pressure Air Temp Water Temp Dewpoint Dewpoint Depression Visibility Wind Speed Wind Dir Waves Ship Positions

Zoie

Owner: B & J CORPORATION, LAKE AUTHUR, LA. More information available from US FCC via Universal Licensing System and Coast Guard Vessel Documentation Center.

Last reported at 2017-Oct-14 14:05 UTC. Time now 2017-Oct-17 20:23 UTC.
Position N 29°46' W 092°59'.

Length 17 m.

Type: Towing. MMSI: 367080810.

Date/timePositionNaut miles runAvg speedWind from/ knotsBaromVisibWave heightAir tempDewpointWater temp
2017-Oct-14 14:05N 29°46' W 092°59'0 3.5
2017-Oct-14 13:58N 29°46' W 092°59'17 3.1
2017-Oct-14 08:36N 29°60' W 092°47'0 0.1
2017-Oct-14 08:30N 29°60' W 092°47'0 0.0
2017-Oct-14 08:00N 29°60' W 092°47'0 0.0
2017-Oct-14 07:30N 29°60' W 092°47'0 0.0
2017-Oct-14 07:00N 29°60' W 092°47'0 0.0
2017-Oct-14 06:30N 29°60' W 092°47'0 0.0
2017-Oct-14 06:00N 29°60' W 092°47'0 0.0
2017-Oct-14 05:30N 29°60' W 092°47'0 0.0
2017-Oct-14 05:00N 29°60' W 092°47'0 0.0
2017-Oct-14 04:30N 29°60' W 092°47'0 0.0
2017-Oct-14 04:00N 29°60' W 092°47'14 2.1
2017-Oct-13 21:30N 29°56' W 093°02'3 5.1
2017-Oct-13 21:00N 29°56' W 093°05'2 4.1
2017-Oct-13 20:30N 29°56' W 093°08'2 5.0
2017-Oct-13 20:00N 29°57' W 093°10'3 5.6
2017-Oct-13 19:30N 29°59' W 093°12'3 5.4
2017-Oct-13 19:00N 30°01' W 093°14'2 5.0
2017-Oct-13 18:30N 30°03' W 093°16'3 5.0
2017-Oct-13 18:00N 30°05' W 093°18'0 0.6
2017-Oct-13 17:30N 30°05' W 093°18'2 3.1
2017-Oct-13 17:00N 30°05' W 093°20'2 4.9
2017-Oct-13 16:30N 30°04' W 093°22'0 0.2
2017-Oct-13 16:00N 30°04' W 093°22'0 0.0
2017-Oct-13 15:30N 30°04' W 093°22'2 4.0
2017-Oct-13 15:00N 30°05' W 093°20'2 4.2
2017-Oct-13 14:30N 30°05' W 093°18'1 1.8
2017-Oct-13 14:00N 30°05' W 093°17'3 6.3
2017-Oct-13 13:30N 30°02' W 093°15'3 5.9
2017-Oct-13 13:00N 29°60' W 093°13'4 7.2
2017-Oct-13 12:30N 29°57' W 093°10'3 6.8
2017-Oct-13 12:00N 29°56' W 093°06'  
Track history (hours):
 
Tides and Currents Weather Stations Pressure Air Temp Water Temp Dewpoint Dewpoint Depression Visibility Wind Speed Wind Dir Waves Ship Positions

Zoie

Owner: B & J CORPORATION, LAKE AUTHUR, LA. More information available from US FCC via Universal Licensing System and Coast Guard Vessel Documentation Center.

Last reported at 2017-Oct-14 14:05 UTC. Time now 2017-Oct-17 20:23 UTC.
Position N 29°46' W 092°59'.

Length 17 m.

Type: Towing. MMSI: 367080810.

Date/timePositionNaut miles runAvg speedWind from/ knotsBaromVisibWave heightAir tempDewpointWater temp
2017-Oct-14 14:05N 29°46' W 092°59'0 3.5
2017-Oct-14 13:58N 29°46' W 092°59'17 3.1
2017-Oct-14 08:36N 29°60' W 092°47'0 0.1
2017-Oct-14 08:30N 29°60' W 092°47'0 0.0
2017-Oct-14 08:00N 29°60' W 092°47'0 0.0
2017-Oct-14 07:30N 29°60' W 092°47'0 0.0
2017-Oct-14 07:00N 29°60' W 092°47'0 0.0
2017-Oct-14 06:30N 29°60' W 092°47'0 0.0
2017-Oct-14 06:00N 29°60' W 092°47'0 0.0
2017-Oct-14 05:30N 29°60' W 092°47'0 0.0
2017-Oct-14 05:00N 29°60' W 092°47'0 0.0
2017-Oct-14 04:30N 29°60' W 092°47'0 0.0
2017-Oct-14 04:00N 29°60' W 092°47'14 2.1
2017-Oct-13 21:30N 29°56' W 093°02'3 5.1
2017-Oct-13 21:00N 29°56' W 093°05'2 4.1
2017-Oct-13 20:30N 29°56' W 093°08'2 5.0
2017-Oct-13 20:00N 29°57' W 093°10'3 5.6
2017-Oct-13 19:30N 29°59' W 093°12'3 5.4
2017-Oct-13 19:00N 30°01' W 093°14'2 5.0
2017-Oct-13 18:30N 30°03' W 093°16'3 5.0
2017-Oct-13 18:00N 30°05' W 093°18'0 0.6
2017-Oct-13 17:30N 30°05' W 093°18'2 3.1
2017-Oct-13 17:00N 30°05' W 093°20'2 4.9
2017-Oct-13 16:30N 30°04' W 093°22'0 0.2
2017-Oct-13 16:00N 30°04' W 093°22'0 0.0
2017-Oct-13 15:30N 30°04' W 093°22'2 4.0
2017-Oct-13 15:00N 30°05' W 093°20'2 4.2
2017-Oct-13 14:30N 30°05' W 093°18'1 1.8
2017-Oct-13 14:00N 30°05' W 093°17'3 6.3
2017-Oct-13 13:30N 30°02' W 093°15'3 5.9
2017-Oct-13 13:00N 29°60' W 093°13'4 7.2
2017-Oct-13 12:30N 29°57' W 093°10'3 6.8
2017-Oct-13 12:00N 29°56' W 093°06'  

Dump ship's entire track history